createdAt,value
2017-09-03T00:00:26.534Z,91.10
2017-09-03T00:02:52.569Z,91.10
2017-09-03T00:05:18.602Z,91.10
2017-09-03T00:07:44.665Z,91.00
2017-09-03T00:10:10.697Z,91.00
2017-09-03T00:12:36.757Z,91.30
2017-09-03T00:15:02.817Z,91.30
2017-09-03T00:17:28.882Z,91.50
2017-09-03T00:19:54.921Z,91.50
2017-09-03T00:22:20.967Z,91.90
2017-09-03T00:24:47.002Z,91.70
2017-09-03T00:27:13.048Z,91.70
2017-09-03T00:29:39.081Z,91.50
2017-09-03T00:32:05.117Z,91.50
2017-09-03T00:34:31.147Z,91.40
2017-09-03T00:36:57.175Z,91.30
2017-09-03T00:39:23.242Z,91.40
2017-09-03T00:41:49.340Z,91.40
2017-09-03T00:44:15.406Z,91.40
2017-09-03T00:46:41.470Z,91.20
2017-09-03T00:49:07.596Z,91.20
2017-09-03T00:51:33.631Z,91.50
2017-09-03T00:53:59.693Z,91.70
2017-09-03T00:56:25.741Z,91.50
2017-09-03T00:58:51.765Z,91.40
2017-09-03T01:01:17.789Z,91.60
2017-09-03T01:03:43.833Z,91.60
2017-09-03T01:06:09.865Z,91.50
2017-09-03T01:08:35.901Z,91.80
2017-09-03T01:11:01.949Z,91.90
2017-09-03T01:13:27.973Z,91.50
2017-09-03T01:15:54.029Z,91.60
2017-09-03T01:18:20.090Z,91.50
2017-09-03T01:20:46.150Z,91.80
2017-09-03T01:23:12.224Z,91.80
2017-09-03T01:25:38.266Z,91.70
2017-09-03T01:28:04.305Z,91.60
2017-09-03T01:30:30.334Z,91.80
2017-09-03T01:32:56.372Z,91.80
2017-09-03T01:35:22.409Z,91.90
2017-09-03T01:37:48.446Z,91.70
2017-09-03T01:40:14.505Z,91.60
2017-09-03T01:42:40.533Z,91.70
2017-09-03T01:45:06.552Z,91.70
2017-09-03T01:47:32.600Z,91.80
2017-09-03T01:49:58.638Z,91.90
2017-09-03T01:52:24.677Z,91.90
2017-09-03T01:54:50.729Z,91.90
2017-09-03T01:57:16.795Z,91.90
2017-09-03T01:59:42.837Z,92.00
2017-09-03T02:02:08.917Z,92.00
2017-09-03T02:04:34.960Z,91.90
2017-09-03T02:07:01.016Z,92.00
2017-09-03T02:09:27.046Z,92.00
2017-09-03T02:11:53.085Z,92.10
2017-09-03T02:14:19.161Z,92.10
2017-09-03T02:16:45.212Z,92.00
2017-09-03T02:19:11.271Z,92.10
2017-09-03T02:21:37.321Z,91.90
2017-09-03T02:24:03.365Z,91.90
2017-09-03T02:26:29.399Z,91.90
2017-09-03T02:28:55.442Z,92.00
2017-09-03T02:31:21.461Z,92.20
2017-09-03T02:33:47.522Z,92.00
2017-09-03T02:36:13.554Z,91.80
2017-09-03T02:38:39.645Z,92.00
2017-09-03T02:41:05.685Z,92.00
2017-09-03T02:43:31.697Z,92.10
2017-09-03T02:45:57.742Z,91.90
2017-09-03T02:48:23.785Z,92.30
2017-09-03T02:50:49.848Z,92.30
2017-09-03T02:53:15.879Z,92.10
2017-09-03T02:55:41.912Z,92.40
2017-09-03T02:58:07.938Z,92.50
2017-09-03T03:00:33.999Z,92.50
2017-09-03T03:03:00.041Z,92.70
2017-09-03T03:05:26.081Z,92.40
2017-09-03T03:07:52.137Z,92.70
2017-09-03T03:10:18.179Z,92.60
2017-09-03T03:12:44.237Z,92.40
2017-09-03T03:15:10.309Z,92.40
2017-09-03T03:17:36.365Z,92.50
2017-09-03T03:20:02.413Z,92.70
2017-09-03T03:22:28.421Z,92.50
2017-09-03T03:24:54.453Z,92.60
2017-09-03T03:27:20.530Z,92.60
2017-09-03T03:29:46.571Z,92.60
2017-09-03T03:32:12.615Z,92.60
2017-09-03T03:34:38.657Z,92.60
2017-09-03T03:37:04.718Z,92.50
2017-09-03T03:39:30.751Z,92.30
2017-09-03T03:41:56.776Z,92.40
2017-09-03T03:44:22.814Z,92.50
2017-09-03T03:46:48.864Z,92.80
2017-09-03T03:49:14.913Z,92.40
2017-09-03T03:51:40.953Z,92.30
2017-09-03T03:54:06.994Z,92.60
2017-09-03T03:56:33.041Z,92.70
2017-09-03T03:58:59.074Z,92.60
2017-09-03T04:01:25.136Z,92.60
2017-09-03T04:03:51.212Z,92.80
2017-09-03T04:06:17.255Z,92.80
2017-09-03T04:08:43.292Z,92.80
2017-09-03T04:11:09.338Z,92.90
2017-09-03T04:13:35.387Z,92.80
2017-09-03T04:16:01.434Z,92.80
2017-09-03T04:18:27.501Z,92.80
2017-09-03T04:20:53.541Z,92.90
2017-09-03T04:23:19.565Z,93.10
2017-09-03T04:25:45.610Z,92.80
2017-09-03T04:28:11.632Z,93.00
2017-09-03T04:30:37.670Z,93.00
2017-09-03T04:33:03.681Z,92.90
2017-09-03T04:35:29.721Z,93.00
2017-09-03T04:37:55.769Z,92.80
2017-09-03T04:40:21.795Z,93.00
2017-09-03T04:42:47.833Z,93.20
2017-09-03T04:45:13.890Z,92.80
2017-09-03T04:47:39.927Z,92.80
2017-09-03T04:50:05.979Z,92.90
2017-09-03T04:52:32.021Z,92.80
2017-09-03T04:54:58.078Z,93.00
2017-09-03T04:57:24.105Z,93.20
2017-09-03T04:59:50.149Z,93.10
2017-09-03T05:02:16.196Z,93.20
2017-09-03T05:04:42.261Z,93.20
2017-09-03T05:07:08.289Z,93.10
2017-09-03T05:09:34.321Z,93.10
2017-09-03T05:12:00.353Z,93.10
2017-09-03T05:14:26.402Z,93.00
2017-09-03T05:16:52.474Z,93.20
2017-09-03T05:19:18.527Z,93.20
2017-09-03T05:21:44.582Z,93.10
2017-09-03T05:24:10.629Z,93.10
2017-09-03T05:26:36.651Z,93.20
2017-09-03T05:29:02.693Z,93.20
2017-09-03T05:31:28.740Z,93.10
2017-09-03T05:33:54.797Z,92.80
2017-09-03T05:36:20.869Z,92.90
2017-09-03T05:38:46.916Z,92.90
2017-09-03T05:41:12.978Z,92.90
2017-09-03T05:43:39.040Z,92.90
2017-09-03T05:46:05.077Z,92.70
2017-09-03T05:48:31.152Z,92.70
2017-09-03T05:50:57.269Z,92.40
2017-09-03T05:53:23.315Z,92.60
2017-09-03T05:55:49.363Z,92.60
2017-09-03T05:58:15.412Z,92.80
2017-09-03T06:00:41.464Z,92.70
2017-09-03T06:03:07.529Z,92.90
2017-09-03T06:05:33.563Z,92.80
2017-09-03T06:07:59.593Z,92.80
2017-09-03T06:10:25.628Z,92.80
2017-09-03T06:12:51.685Z,92.60
2017-09-03T06:15:17.772Z,92.80
2017-09-03T06:17:43.838Z,92.60
2017-09-03T06:20:09.877Z,92.80
2017-09-03T06:22:35.915Z,93.10
2017-09-03T06:25:01.973Z,92.70
2017-09-03T06:27:28.029Z,93.00
2017-09-03T06:29:54.065Z,93.10
2017-09-03T06:32:20.089Z,92.80
2017-09-03T06:34:46.148Z,92.70
2017-09-03T06:37:12.185Z,92.30
2017-09-03T06:39:38.234Z,92.10
2017-09-03T06:42:04.277Z,92.40
2017-09-03T06:44:30.305Z,92.30
2017-09-03T06:46:56.329Z,91.80
2017-09-03T06:49:22.379Z,91.40
2017-09-03T06:51:48.430Z,91.40
2017-09-03T06:54:14.489Z,91.50
2017-09-03T06:56:40.525Z,91.20
2017-09-03T06:59:06.549Z,91.20
2017-09-03T07:01:33.076Z,91.20
2017-09-03T07:03:59.393Z,91.10
2017-09-03T07:06:25.418Z,90.80
2017-09-03T07:08:51.465Z,90.60
2017-09-03T07:11:17.492Z,90.50
2017-09-03T07:13:44.892Z,90.30
2017-09-03T07:16:11.371Z,90.20
2017-09-03T07:18:37.451Z,89.90
2017-09-03T07:21:03.512Z,89.20
2017-09-03T07:23:29.565Z,89.20
2017-09-03T07:25:55.617Z,88.70
2017-09-03T07:28:21.638Z,87.80
2017-09-03T07:30:47.677Z,87.70
2017-09-03T07:33:13.737Z,87.20
2017-09-03T07:35:39.782Z,87.60
2017-09-03T07:38:05.833Z,86.00
2017-09-03T07:40:31.868Z,84.20
2017-09-03T07:42:57.926Z,85.20
2017-09-03T07:45:23.994Z,84.60
2017-09-03T07:47:50.096Z,84.60
2017-09-03T07:50:16.156Z,82.70
2017-09-03T07:52:42.249Z,83.40
2017-09-03T07:55:08.331Z,81.00
2017-09-03T07:57:34.397Z,78.50
2017-09-03T08:00:00.443Z,79.50
2017-09-03T08:02:26.497Z,78.00
2017-09-03T08:04:52.580Z,80.20
2017-09-03T08:07:18.645Z,76.90
2017-09-03T08:09:44.706Z,74.50
2017-09-03T08:12:10.770Z,74.50
2017-09-03T08:14:36.864Z,75.20
2017-09-03T08:17:02.902Z,73.90
2017-09-03T08:19:28.948Z,73.60
2017-09-03T08:21:55.283Z,74.80
2017-09-03T08:24:21.334Z,73.50
2017-09-03T08:26:47.415Z,70.60
2017-09-03T08:29:13.502Z,70.90
2017-09-03T08:31:39.564Z,69.80
2017-09-03T08:34:05.625Z,68.50
2017-09-03T08:36:31.697Z,67.40
2017-09-03T08:38:57.761Z,67.40
2017-09-03T08:41:23.826Z,65.50
2017-09-03T08:43:49.901Z,63.90
2017-09-03T08:46:16.114Z,65.80
2017-09-03T08:48:42.170Z,64.50
2017-09-03T08:51:08.228Z,65.00
2017-09-03T08:53:34.342Z,64.80
2017-09-03T08:56:00.396Z,66.20
2017-09-03T08:58:26.453Z,66.20
2017-09-03T09:00:52.517Z,62.70
2017-09-03T09:03:18.596Z,64.00
2017-09-03T09:05:45.100Z,61.70
2017-09-03T09:08:11.318Z,60.90
2017-09-03T09:10:38.988Z,58.20
2017-09-03T09:13:05.059Z,58.80
2017-09-03T09:15:31.113Z,55.00
2017-09-03T09:17:57.183Z,55.30
2017-09-03T09:20:23.242Z,52.10
2017-09-03T09:22:49.295Z,48.60
2017-09-03T09:25:15.358Z,46.90
2017-09-03T09:27:41.977Z,41.30
2017-09-03T09:30:08.084Z,41.10
2017-09-03T09:32:34.114Z,43.30
2017-09-03T09:35:00.150Z,42.10
2017-09-03T09:37:26.213Z,44.30
2017-09-03T09:39:52.342Z,42.80
2017-09-03T09:42:19.711Z,42.00
2017-09-03T09:44:46.207Z,41.90
2017-09-03T09:47:12.318Z,41.30
2017-09-03T09:49:38.381Z,41.50
2017-09-03T09:52:04.444Z,43.50
2017-09-03T09:54:30.477Z,44.00
2017-09-03T09:56:56.538Z,45.00
2017-09-03T09:59:22.594Z,47.10
2017-09-03T10:01:48.698Z,47.50
2017-09-03T10:04:14.757Z,48.30
2017-09-03T10:06:40.824Z,49.00
2017-09-03T10:09:06.891Z,49.20
2017-09-03T10:11:32.945Z,49.50
2017-09-03T10:13:59.001Z,48.80
2017-09-03T10:16:25.041Z,48.10
2017-09-03T10:18:51.158Z,47.40
2017-09-03T10:21:17.204Z,48.90
2017-09-03T10:23:43.257Z,46.60
2017-09-03T10:26:09.289Z,44.60
2017-09-03T10:28:35.377Z,40.90
2017-09-03T10:31:01.453Z,38.10
2017-09-03T10:33:27.518Z,41.00
2017-09-03T10:35:53.541Z,40.00
2017-09-03T10:38:19.603Z,37.40
2017-09-03T10:40:45.625Z,37.40
2017-09-03T10:43:11.716Z,33.80
2017-09-03T10:45:37.780Z,32.70
2017-09-03T10:48:03.844Z,30.40
2017-09-03T10:50:29.873Z,28.60
2017-09-03T10:52:55.898Z,29.50
2017-09-03T10:55:22.285Z,30.00
2017-09-03T10:57:48.337Z,31.50
2017-09-03T11:00:14.369Z,35.50
2017-09-03T11:02:40.423Z,35.70
2017-09-03T11:05:06.470Z,38.00
2017-09-03T11:07:32.617Z,39.50
2017-09-03T11:09:58.653Z,42.40
2017-09-03T11:12:24.697Z,45.20
2017-09-03T11:14:50.747Z,47.50
2017-09-03T11:17:17.522Z,39.80
2017-09-03T11:19:43.556Z,39.80
2017-09-03T11:22:09.597Z,38.30
2017-09-03T11:24:35.639Z,31.40
2017-09-03T11:27:01.681Z,31.70
2017-09-03T11:29:27.719Z,32.80
2017-09-03T11:31:53.753Z,29.60
2017-09-03T11:34:19.845Z,30.50
2017-09-03T11:36:45.905Z,29.80
2017-09-03T11:39:11.963Z,28.60
2017-09-03T11:41:38.093Z,28.00
2017-09-03T11:44:04.107Z,28.70
2017-09-03T11:46:30.137Z,27.50
2017-09-03T11:48:56.176Z,25.00
2017-09-03T11:51:22.209Z,25.80
2017-09-03T11:53:48.241Z,26.80
2017-09-03T11:56:14.297Z,24.30
2017-09-03T11:58:40.339Z,25.30
2017-09-03T12:01:06.372Z,24.60
2017-09-03T12:03:32.444Z,25.40
2017-09-03T12:05:58.514Z,24.20
2017-09-03T12:08:24.559Z,25.00
2017-09-03T12:10:50.605Z,24.40
2017-09-03T12:13:16.626Z,25.40
2017-09-03T12:15:42.690Z,26.80
2017-09-03T12:18:08.757Z,23.50
2017-09-03T12:20:34.794Z,22.00
2017-09-03T12:23:00.829Z,25.10
2017-09-03T12:25:26.882Z,25.10
2017-09-03T12:27:53.077Z,25.60
2017-09-03T12:30:19.133Z,23.50
2017-09-03T12:32:45.188Z,21.50
2017-09-03T12:35:11.247Z,26.00
2017-09-03T12:37:37.317Z,26.50
2017-09-03T12:40:03.407Z,27.30
2017-09-03T12:42:29.469Z,29.10
2017-09-03T12:44:55.519Z,30.70
2017-09-03T12:47:21.569Z,29.30
2017-09-03T12:49:47.625Z,29.20
2017-09-03T12:52:13.696Z,27.90
2017-09-03T12:54:39.769Z,28.50
2017-09-03T12:57:05.822Z,26.70
2017-09-03T12:59:31.864Z,28.70
2017-09-03T13:01:57.910Z,29.70
2017-09-03T13:04:23.937Z,30.80
2017-09-03T13:06:50.028Z,30.30
2017-09-03T13:09:16.099Z,31.30
2017-09-03T13:11:42.152Z,30.00
2017-09-03T13:14:08.194Z,30.90
2017-09-03T13:16:34.235Z,28.30
2017-09-03T13:19:00.336Z,27.30
2017-09-03T13:21:26.381Z,31.40
2017-09-03T13:23:52.437Z,29.70
2017-09-03T13:26:18.645Z,35.30
2017-09-03T13:28:44.693Z,34.50
2017-09-03T13:31:10.741Z,38.20
2017-09-03T13:33:36.787Z,38.40
2017-09-03T13:36:02.829Z,39.30
2017-09-03T13:38:28.876Z,39.30
2017-09-03T13:40:54.909Z,40.70
2017-09-03T13:43:21.026Z,40.40
2017-09-03T13:45:47.109Z,42.50
2017-09-03T13:48:13.140Z,41.90
2017-09-03T13:50:39.182Z,43.10
2017-09-03T13:53:05.226Z,45.00
2017-09-03T13:55:31.257Z,42.60
2017-09-03T13:57:57.351Z,43.20
2017-09-03T14:00:24.155Z,43.10
2017-09-03T14:02:50.201Z,43.10
2017-09-03T14:05:16.228Z,42.00
2017-09-03T14:07:42.299Z,43.30
2017-09-03T14:10:08.393Z,42.00
2017-09-03T14:12:34.422Z,40.50
2017-09-03T14:15:00.535Z,39.70
2017-09-03T14:17:26.610Z,38.00
2017-09-03T14:19:52.688Z,41.70
2017-09-03T14:22:18.745Z,43.30
2017-09-03T14:24:44.794Z,42.00
2017-09-03T14:27:10.868Z,43.80
2017-09-03T14:29:36.908Z,42.90
2017-09-03T14:32:02.947Z,42.00
2017-09-03T14:34:28.989Z,43.10
2017-09-03T14:36:55.032Z,44.50
2017-09-03T14:39:21.080Z,44.40
2017-09-03T14:41:47.113Z,46.10
2017-09-03T14:44:13.153Z,47.40
2017-09-03T14:46:39.206Z,50.30
2017-09-03T14:49:05.242Z,48.60
2017-09-03T14:51:31.275Z,48.00
2017-09-03T14:53:57.304Z,48.40
2017-09-03T14:56:23.334Z,45.80
2017-09-03T14:58:49.389Z,45.60
2017-09-03T15:01:15.455Z,43.40
2017-09-03T15:03:41.505Z,44.50
2017-09-03T15:06:07.569Z,45.30
2017-09-03T15:08:33.637Z,46.30
2017-09-03T15:10:59.665Z,44.70
2017-09-03T15:13:25.696Z,45.20
2017-09-03T15:15:51.753Z,41.90
2017-09-03T15:18:17.834Z,38.10
2017-09-03T15:20:43.894Z,39.90
2017-09-03T15:23:10.002Z,39.40
2017-09-03T15:25:36.049Z,40.80
2017-09-03T15:28:02.140Z,40.90
2017-09-03T15:30:28.205Z,38.50
2017-09-03T15:32:54.369Z,37.80
2017-09-03T15:35:20.536Z,35.60
2017-09-03T15:37:46.588Z,32.70
2017-09-03T15:40:12.658Z,31.00
2017-09-03T15:42:38.709Z,31.10
2017-09-03T15:45:04.766Z,29.20
2017-09-03T15:47:30.832Z,31.00
2017-09-03T15:49:56.870Z,35.20
2017-09-03T15:52:22.915Z,34.90
2017-09-03T15:54:48.969Z,35.30
2017-09-03T15:57:15.015Z,36.80
2017-09-03T15:59:41.077Z,37.50
2017-09-03T16:02:07.145Z,40.10
2017-09-03T16:04:33.239Z,41.40
2017-09-03T16:06:59.269Z,41.70
2017-09-03T16:09:25.337Z,40.60
2017-09-03T16:11:51.445Z,36.40
2017-09-03T16:14:17.491Z,35.30
2017-09-03T16:16:43.550Z,35.10
2017-09-03T16:19:09.610Z,36.30
2017-09-03T16:21:35.672Z,37.40
2017-09-03T16:24:01.701Z,40.30
2017-09-03T16:26:28.130Z,42.20
2017-09-03T16:28:54.192Z,42.80
2017-09-03T16:31:20.242Z,45.20
2017-09-03T16:33:46.287Z,46.10
2017-09-03T16:36:12.336Z,47.20
2017-09-03T16:38:38.389Z,47.50
2017-09-03T16:41:04.434Z,48.20
2017-09-03T16:43:30.477Z,48.10
2017-09-03T16:45:56.529Z,51.20
2017-09-03T16:48:22.587Z,51.40
2017-09-03T16:50:48.645Z,51.40
2017-09-03T16:53:14.697Z,51.20
2017-09-03T16:55:40.754Z,51.60
2017-09-03T16:58:06.841Z,53.40
2017-09-03T17:00:32.870Z,53.70
2017-09-03T17:02:58.921Z,54.90
2017-09-03T17:05:24.957Z,53.70
2017-09-03T17:07:51.037Z,54.90
2017-09-03T17:10:17.126Z,55.40
2017-09-03T17:12:43.243Z,55.40
2017-09-03T17:15:09.282Z,56.80
2017-09-03T17:17:35.305Z,57.00
2017-09-03T17:20:01.374Z,57.30
2017-09-03T17:22:27.417Z,58.10
2017-09-03T17:24:53.463Z,58.20
2017-09-03T17:27:19.505Z,58.50
2017-09-03T17:29:45.542Z,59.40
2017-09-03T17:32:11.578Z,57.50
2017-09-03T17:34:43.456Z,58.40
2017-09-03T17:37:10.338Z,59.30
2017-09-03T17:39:36.406Z,60.20
2017-09-03T17:42:02.441Z,60.10
2017-09-03T17:44:28.498Z,60.10
2017-09-03T17:46:55.443Z,60.00
2017-09-03T17:49:21.497Z,60.10
2017-09-03T17:51:47.544Z,60.70
2017-09-03T17:54:13.632Z,62.00
2017-09-03T17:56:39.663Z,61.70
2017-09-03T17:59:05.701Z,60.90
2017-09-03T18:01:31.745Z,62.50
2017-09-03T18:03:57.793Z,62.30
2017-09-03T18:06:23.852Z,62.00
2017-09-03T18:08:49.883Z,62.50
2017-09-03T18:11:15.914Z,61.70
2017-09-03T18:13:41.945Z,63.70
2017-09-03T18:16:07.981Z,63.30
2017-09-03T18:18:34.029Z,63.20
2017-09-03T18:21:00.089Z,64.00
2017-09-03T18:23:26.113Z,63.40
2017-09-03T18:25:52.164Z,65.10
2017-09-03T18:28:19.141Z,64.70
2017-09-03T18:30:46.188Z,65.40
2017-09-03T18:33:12.225Z,65.30
2017-09-03T18:35:38.272Z,65.00
2017-09-03T18:38:10.066Z,65.90
2017-09-03T18:40:39.949Z,67.10
2017-09-03T18:43:08.812Z,67.20
2017-09-03T18:45:38.646Z,67.70
2017-09-03T18:48:04.665Z,68.00
2017-09-03T18:50:33.676Z,68.20
2017-09-03T18:53:03.745Z,68.70
2017-09-03T18:55:32.721Z,68.70
2017-09-03T18:58:01.620Z,69.30
2017-09-03T19:00:28.563Z,69.80
2017-09-03T19:02:56.453Z,69.50
2017-09-03T19:05:24.437Z,69.30
2017-09-03T19:07:50.468Z,69.90
2017-09-03T19:10:16.511Z,70.40
2017-09-03T19:12:42.559Z,70.70
2017-09-03T19:15:08.617Z,70.70
2017-09-03T19:17:34.682Z,70.90
2017-09-03T19:20:00.721Z,71.50
2017-09-03T19:22:26.778Z,71.80
2017-09-03T19:24:53.673Z,71.80
2017-09-03T19:27:19.727Z,72.00
2017-09-03T19:29:45.765Z,71.70
2017-09-03T19:32:11.878Z,72.50
2017-09-03T19:34:37.917Z,73.10
2017-09-03T19:37:03.958Z,72.90
2017-09-03T19:39:30.034Z,73.60
2017-09-03T19:41:56.073Z,74.80
2017-09-03T19:44:22.180Z,74.20
2017-09-03T19:46:48.220Z,74.70
2017-09-03T19:49:14.260Z,75.50
2017-09-03T19:51:40.289Z,75.50
2017-09-03T19:54:06.367Z,75.70
2017-09-03T19:56:32.402Z,75.90
2017-09-03T19:58:58.485Z,75.70
2017-09-03T20:01:24.498Z,75.80
2017-09-03T20:03:50.525Z,76.50
2017-09-03T20:06:16.564Z,76.20
2017-09-03T20:08:42.638Z,76.40
2017-09-03T20:11:08.661Z,76.40
2017-09-03T20:13:34.706Z,76.80
2017-09-03T20:16:00.756Z,77.70
2017-09-03T20:18:26.830Z,77.70
2017-09-03T20:20:52.888Z,78.10
2017-09-03T20:23:18.908Z,77.70
2017-09-03T20:25:44.937Z,78.20
2017-09-03T20:28:10.958Z,77.80
2017-09-03T20:30:36.984Z,78.00
2017-09-03T20:33:03.009Z,78.10
2017-09-03T20:35:29.037Z,78.20
2017-09-03T20:37:55.061Z,78.60
2017-09-03T20:40:21.096Z,78.60
2017-09-03T20:42:47.121Z,78.90
2017-09-03T20:45:13.269Z,79.10
2017-09-03T20:47:39.292Z,79.40
2017-09-03T20:50:05.296Z,79.50
2017-09-03T20:52:31.348Z,79.30
2017-09-03T20:54:57.404Z,80.10
2017-09-03T20:57:23.437Z,80.00
2017-09-03T20:59:49.460Z,80.30
2017-09-03T21:02:15.517Z,80.30
2017-09-03T21:04:41.582Z,80.30
2017-09-03T21:07:07.623Z,80.00
2017-09-03T21:09:33.648Z,79.70
2017-09-03T21:11:59.687Z,80.70
2017-09-03T21:14:25.729Z,81.20
2017-09-03T21:16:51.781Z,80.70
2017-09-03T21:19:17.813Z,80.90
2017-09-03T21:21:43.838Z,80.50
2017-09-03T21:24:09.887Z,81.90
2017-09-03T21:26:35.896Z,81.10
2017-09-03T21:29:01.937Z,81.70
2017-09-03T21:31:27.957Z,82.40
2017-09-03T21:33:53.997Z,82.60
2017-09-03T21:36:20.032Z,83.20
2017-09-03T21:38:46.093Z,82.90
2017-09-03T21:41:12.121Z,83.10
2017-09-03T21:43:38.159Z,82.90
2017-09-03T21:46:04.203Z,82.60
2017-09-03T21:48:30.237Z,82.80
2017-09-03T21:50:56.253Z,83.40
2017-09-03T21:53:22.289Z,83.50
2017-09-03T21:55:48.328Z,83.30
2017-09-03T21:58:14.376Z,83.30
2017-09-03T22:00:40.402Z,83.50
2017-09-03T22:03:06.413Z,84.20
2017-09-03T22:05:32.494Z,83.70
2017-09-03T22:07:58.546Z,83.10
2017-09-03T22:10:24.597Z,84.30
2017-09-03T22:12:50.652Z,84.40
2017-09-03T22:15:16.700Z,85.20
2017-09-03T22:17:42.721Z,85.20
2017-09-03T22:20:08.769Z,85.20
2017-09-03T22:22:34.781Z,85.50
2017-09-03T22:25:00.857Z,85.90
2017-09-03T22:27:26.890Z,85.70
2017-09-03T22:29:52.916Z,85.50
2017-09-03T22:32:18.951Z,85.40
2017-09-03T22:34:45.001Z,85.90
2017-09-03T22:37:11.050Z,85.30
2017-09-03T22:39:37.062Z,86.20
2017-09-03T22:42:03.097Z,86.60
2017-09-03T22:44:29.110Z,86.10
2017-09-03T22:46:55.158Z,86.50
2017-09-03T22:49:21.198Z,86.30
2017-09-03T22:51:47.262Z,86.50
2017-09-03T22:54:13.272Z,86.90
2017-09-03T22:56:39.322Z,87.20
2017-09-03T22:59:05.376Z,86.50
2017-09-03T23:01:31.429Z,85.40
2017-09-03T23:03:57.488Z,86.70
2017-09-03T23:06:23.534Z,87.30
2017-09-03T23:08:49.553Z,87.50
2017-09-03T23:11:15.693Z,87.30
2017-09-03T23:13:41.721Z,87.30
2017-09-03T23:16:07.787Z,87.70
2017-09-03T23:18:33.860Z,87.00
2017-09-03T23:20:59.901Z,87.20
2017-09-03T23:23:25.969Z,86.70
2017-09-03T23:25:52.008Z,87.60
2017-09-03T23:28:18.047Z,87.90
2017-09-03T23:30:44.072Z,88.60
2017-09-03T23:33:10.116Z,87.80
2017-09-03T23:35:36.137Z,88.70
2017-09-03T23:38:02.211Z,88.50
2017-09-03T23:40:28.237Z,88.30
2017-09-03T23:42:54.254Z,87.90
2017-09-03T23:45:20.299Z,88.60
2017-09-03T23:47:46.344Z,88.70
2017-09-03T23:50:12.406Z,88.50
2017-09-03T23:52:38.421Z,88.70
2017-09-03T23:55:04.443Z,88.70
2017-09-03T23:57:30.495Z,89.10
2017-09-03T23:59:56.518Z,89.70
